sensor_id;sensor_type;location;lat;lon;timestamp;pressure;altitude;pressure_sealevel;temperature;humidity
76603;BME280;65075;48.390;17.598;2023-02-28T00:01:28;100769.41;;;0.73;58.55
76603;BME280;65075;48.390;17.598;2023-02-28T00:03:54;100767.66;;;0.57;58.22
76603;BME280;65075;48.390;17.598;2023-02-28T00:06:21;100774.63;;;0.35;59.35
76603;BME280;65075;48.390;17.598;2023-02-28T00:08:48;100765.75;;;-0.20;61.42
76603;BME280;65075;48.390;17.598;2023-02-28T00:11:16;100771.03;;;0.04;60.96
76603;BME280;65075;48.390;17.598;2023-02-28T00:13:45;100775.03;;;0.16;60.55
76603;BME280;65075;48.390;17.598;2023-02-28T00:16:20;100778.28;;;1.04;58.45
76603;BME280;65075;48.390;17.598;2023-02-28T00:18:47;100774.47;;;0.37;59.24
76603;BME280;65075;48.390;17.598;2023-02-28T00:21:15;100778.13;;;1.05;56.58
76603;BME280;65075;48.390;17.598;2023-02-28T00:23:42;100780.59;;;1.30;55.97
76603;BME280;65075;48.390;17.598;2023-02-28T00:26:09;100796.66;;;1.15;56.61
76603;BME280;65075;48.390;17.598;2023-02-28T00:28:36;100784.13;;;0.54;58.27
76603;BME280;65075;48.390;17.598;2023-02-28T00:31:03;100774.81;;;0.26;59.75
76603;BME280;65075;48.390;17.598;2023-02-28T00:33:30;100786.19;;;-0.19;61.27
76603;BME280;65075;48.390;17.598;2023-02-28T00:36:09;100795.84;;;0.06;60.46
76603;BME280;65075;48.390;17.598;2023-02-28T00:38:40;100791.84;;;1.10;58.21
76603;BME280;65075;48.390;17.598;2023-02-28T00:41:10;100788.97;;;1.12;56.88
76603;BME280;65075;48.390;17.598;2023-02-28T00:43:39;100788.22;;;0.73;58.04
76603;BME280;65075;48.390;17.598;2023-02-28T00:46:06;100787.66;;;1.08;57.92
76603;BME280;65075;48.390;17.598;2023-02-28T00:48:33;100738.84;;;0.04;59.76
76603;BME280;65075;48.390;17.598;2023-02-28T00:51:01;100788.38;;;-0.15;61.62
76603;BME280;65075;48.390;17.598;2023-02-28T00:53:29;100791.38;;;0.76;59.37
76603;BME280;65075;48.390;17.598;2023-02-28T00:55:56;100797.44;;;0.39;59.64
76603;BME280;65075;48.390;17.598;2023-02-28T00:58:22;100796.34;;;0.56;59.09
76603;BME280;65075;48.390;17.598;2023-02-28T01:00:53;100797.63;;;0.30;60.03
76603;BME280;65075;48.390;17.598;2023-02-28T01:03:23;100791.84;;;1.33;56.96
76603;BME280;65075;48.390;17.598;2023-02-28T01:05:50;100802.50;;;2.45;53.33
76603;BME280;65075;48.390;17.598;2023-02-28T01:08:19;100801.03;;;1.39;56.72
76603;BME280;65075;48.390;17.598;2023-02-28T01:10:45;100815.91;;;3.46;51.21
76603;BME280;65075;48.390;17.598;2023-02-28T01:13:15;100808.19;;;3.92;49.77
76603;BME280;65075;48.390;17.598;2023-02-28T01:15:50;100814.66;;;3.91;50.24
76603;BME280;65075;48.390;17.598;2023-02-28T01:18:19;100805.16;;;4.70;47.00
76603;BME280;65075;48.390;17.598;2023-02-28T01:20:47;100808.84;;;3.94;49.14
76603;BME280;65075;48.390;17.598;2023-02-28T01:23:14;100822.19;;;3.53;50.45
76603;BME280;65075;48.390;17.598;2023-02-28T01:25:43;100818.50;;;4.10;48.93
76603;BME280;65075;48.390;17.598;2023-02-28T01:28:10;100826.66;;;3.88;50.89
76603;BME280;65075;48.390;17.598;2023-02-28T01:30:36;100829.53;;;5.44;46.74
76603;BME280;65075;48.390;17.598;2023-02-28T01:33:03;100828.16;;;5.87;45.21
76603;BME280;65075;48.390;17.598;2023-02-28T01:35:35;100826.66;;;5.65;45.53
76603;BME280;65075;48.390;17.598;2023-02-28T01:38:03;100825.72;;;4.30;49.16
76603;BME280;65075;48.390;17.598;2023-02-28T01:40:29;100830.34;;;4.71;48.42
76603;BME280;65075;48.390;17.598;2023-02-28T01:42:56;100833.66;;;5.40;46.77
76603;BME280;65075;48.390;17.598;2023-02-28T01:45:29;100825.34;;;5.35;46.59
76603;BME280;65075;48.390;17.598;2023-02-28T01:48:03;100825.94;;;4.70;48.46
76603;BME280;65075;48.390;17.598;2023-02-28T01:50:41;100839.06;;;3.83;49.66
76603;BME280;65075;48.390;17.598;2023-02-28T01:53:19;100834.72;;;4.78;47.89
76603;BME280;65075;48.390;17.598;2023-02-28T01:56:01;100837.66;;;5.57;46.48
76603;BME280;65075;48.390;17.598;2023-02-28T01:58:30;100837.84;;;4.41;48.41
76603;BME280;65075;48.390;17.598;2023-02-28T02:00:57;100832.88;;;2.39;54.47
76603;BME280;65075;48.390;17.598;2023-02-28T02:03:24;100835.56;;;4.85;48.98
76603;BME280;65075;48.390;17.598;2023-02-28T02:05:51;100827.94;;;4.95;48.11
76603;BME280;65075;48.390;17.598;2023-02-28T02:08:28;100829.88;;;3.14;52.30
76603;BME280;65075;48.390;17.598;2023-02-28T02:10:58;100833.72;;;3.89;50.58
76603;BME280;65075;48.390;17.598;2023-02-28T02:13:48;100833.00;;;4.02;51.20
76603;BME280;65075;48.390;17.598;2023-02-28T02:17:00;100835.03;;;3.51;51.93
76603;BME280;65075;48.390;17.598;2023-02-28T02:22:45;100836.13;;;4.68;49.22
76603;BME280;65075;48.390;17.598;2023-02-28T02:28:34;100837.75;;;4.00;51.19
76603;BME280;65075;48.390;17.598;2023-02-28T02:42:46;100831.75;;;5.20;48.14
76603;BME280;65075;48.390;17.598;2023-02-28T02:45:52;100835.78;;;5.44;47.40
76603;BME280;65075;48.390;17.598;2023-02-28T02:48:24;100841.84;;;5.53;46.54
76603;BME280;65075;48.390;17.598;2023-02-28T02:51:01;100841.47;;;5.82;45.79
76603;BME280;65075;48.390;17.598;2023-02-28T02:53:37;100823.16;;;4.97;47.51
76603;BME280;65075;48.390;17.598;2023-02-28T02:56:07;100838.91;;;5.54;46.74
76603;BME280;65075;48.390;17.598;2023-02-28T02:58:40;100845.03;;;6.09;45.13
76603;BME280;65075;48.390;17.598;2023-02-28T03:01:18;100837.84;;;5.36;46.15
76603;BME280;65075;48.390;17.598;2023-02-28T03:04:13;100835.22;;;6.14;44.79
76603;BME280;65075;48.390;17.598;2023-02-28T03:06:43;100819.53;;;5.51;45.90
76603;BME280;65075;48.390;17.598;2023-02-28T03:09:10;100846.47;;;5.85;45.99
76603;BME280;65075;48.390;17.598;2023-02-28T03:11:41;100839.81;;;5.94;45.23
76603;BME280;65075;48.390;17.598;2023-02-28T03:18:01;100843.47;;;4.80;48.02
76603;BME280;65075;48.390;17.598;2023-02-28T03:24:06;100841.72;;;3.55;49.76
76603;BME280;65075;48.390;17.598;2023-02-28T03:26:41;100841.22;;;2.73;52.13
76603;BME280;65075;48.390;17.598;2023-02-28T03:29:33;100844.97;;;3.93;49.44
76603;BME280;65075;48.390;17.598;2023-02-28T03:34:50;100837.34;;;4.03;50.01
76603;BME280;65075;48.390;17.598;2023-02-28T03:37:25;100841.22;;;3.94;50.00
76603;BME280;65075;48.390;17.598;2023-02-28T03:40:10;100840.53;;;4.41;48.43
76603;BME280;65075;48.390;17.598;2023-02-28T03:42:42;100835.06;;;4.62;48.04
76603;BME280;65075;48.390;17.598;2023-02-28T03:45:20;100841.50;;;4.61;47.89
76603;BME280;65075;48.390;17.598;2023-02-28T03:48:03;100842.84;;;4.44;48.92
76603;BME280;65075;48.390;17.598;2023-02-28T03:50:46;100833.47;;;3.84;49.74
76603;BME280;65075;48.390;17.598;2023-02-28T03:53:27;100834.38;;;4.94;47.51
76603;BME280;65075;48.390;17.598;2023-02-28T03:56:22;100852.81;;;4.43;47.33
76603;BME280;65075;48.390;17.598;2023-02-28T03:59:00;100848.16;;;3.75;49.60
76603;BME280;65075;48.390;17.598;2023-02-28T04:01:38;100861.50;;;4.11;50.46
76603;BME280;65075;48.390;17.598;2023-02-28T04:04:09;100852.91;;;4.56;48.04
76603;BME280;65075;48.390;17.598;2023-02-28T04:06:36;100861.00;;;4.22;48.31
76603;BME280;65075;48.390;17.598;2023-02-28T04:09:05;100816.25;;;4.82;46.35
76603;BME280;65075;48.390;17.598;2023-02-28T04:11:50;100852.31;;;5.08;46.32
76603;BME280;65075;48.390;17.598;2023-02-28T04:14:18;100845.19;;;4.19;48.53
76603;BME280;65075;48.390;17.598;2023-02-28T04:16:45;100837.88;;;4.88;47.00
76603;BME280;65075;48.390;17.598;2023-02-28T04:19:14;100860.38;;;4.95;46.66
76603;BME280;65075;48.390;17.598;2023-02-28T04:21:48;100801.47;;;4.84;46.18
76603;BME280;65075;48.390;17.598;2023-02-28T04:24:24;100859.44;;;5.16;46.42
76603;BME280;65075;48.390;17.598;2023-02-28T04:26:52;100861.22;;;5.02;46.21
76603;BME280;65075;48.390;17.598;2023-02-28T04:29:23;100867.31;;;4.36;48.31
76603;BME280;65075;48.390;17.598;2023-02-28T04:31:51;100869.59;;;3.83;49.68
76603;BME280;65075;48.390;17.598;2023-02-28T04:34:21;100857.16;;;3.61;49.81
76603;BME280;65075;48.390;17.598;2023-02-28T04:36:48;100857.47;;;4.56;47.87
76603;BME280;65075;48.390;17.598;2023-02-28T04:39:22;100865.13;;;4.87;46.90
76603;BME280;65075;48.390;17.598;2023-02-28T04:41:50;100857.91;;;5.00;46.53
76603;BME280;65075;48.390;17.598;2023-02-28T04:44:17;100793.72;;;3.72;48.99
76603;BME280;65075;48.390;17.598;2023-02-28T04:46:43;100847.59;;;4.08;48.71
76603;BME280;65075;48.390;17.598;2023-02-28T04:49:12;100871.91;;;3.86;48.75
76603;BME280;65075;48.390;17.598;2023-02-28T04:51:40;100864.78;;;3.36;51.17
76603;BME280;65075;48.390;17.598;2023-02-28T04:54:06;100863.41;;;3.68;49.49
76603;BME280;65075;48.390;17.598;2023-02-28T04:56:33;100863.41;;;2.46;53.93
76603;BME280;65075;48.390;17.598;2023-02-28T04:59:02;100875.25;;;3.46;51.53
76603;BME280;65075;48.390;17.598;2023-02-28T05:01:33;100871.84;;;2.43;53.72
76603;BME280;65075;48.390;17.598;2023-02-28T05:04:02;100873.13;;;3.06;51.52
76603;BME280;65075;48.390;17.598;2023-02-28T05:06:32;100875.22;;;3.25;52.35
76603;BME280;65075;48.390;17.598;2023-02-28T05:08:59;100889.34;;;3.84;50.37
76603;BME280;65075;48.390;17.598;2023-02-28T05:11:32;100871.63;;;4.02;49.01
76603;BME280;65075;48.390;17.598;2023-02-28T05:14:19;100870.72;;;3.11;51.21
76603;BME280;65075;48.390;17.598;2023-02-28T05:16:46;100867.06;;;2.68;52.86
76603;BME280;65075;48.390;17.598;2023-02-28T05:19:12;100871.84;;;1.77;55.26
76603;BME280;65075;48.390;17.598;2023-02-28T05:21:51;100873.41;;;1.71;55.14
76603;BME280;65075;48.390;17.598;2023-02-28T05:24:19;100872.31;;;1.04;56.76
76603;BME280;65075;48.390;17.598;2023-02-28T05:26:51;100874.16;;;0.10;59.23
76603;BME280;65075;48.390;17.598;2023-02-28T05:29:18;100877.03;;;0.08;60.29
76603;BME280;65075;48.390;17.598;2023-02-28T05:31:46;100882.22;;;-0.07;61.29
76603;BME280;65075;48.390;17.598;2023-02-28T05:34:14;100878.34;;;0.04;60.92
76603;BME280;65075;48.390;17.598;2023-02-28T05:36:43;100877.97;;;-0.74;62.94
76603;BME280;65075;48.390;17.598;2023-02-28T05:39:10;100841.22;;;-1.13;64.40
76603;BME280;65075;48.390;17.598;2023-02-28T05:41:48;100856.06;;;-0.61;62.18
76603;BME280;65075;48.390;17.598;2023-02-28T05:44:15;100884.16;;;0.87;57.90
76603;BME280;65075;48.390;17.598;2023-02-28T05:46:42;100889.09;;;2.05;54.67
76603;BME280;65075;48.390;17.598;2023-02-28T05:49:09;100868.53;;;3.21;50.74
76603;BME280;65075;48.390;17.598;2023-02-28T05:51:35;100904.56;;;2.84;52.22
76603;BME280;65075;48.390;17.598;2023-02-28T05:54:09;100899.56;;;2.66;52.61
76603;BME280;65075;48.390;17.598;2023-02-28T05:56:37;100906.63;;;2.67;52.13
76603;BME280;65075;48.390;17.598;2023-02-28T05:59:14;100899.88;;;1.37;56.27
76603;BME280;65075;48.390;17.598;2023-02-28T06:01:48;100892.59;;;3.58;50.27
76603;BME280;65075;48.390;17.598;2023-02-28T06:04:15;100907.56;;;0.70;56.36
76603;BME280;65075;48.390;17.598;2023-02-28T06:06:49;100900.66;;;-0.44;61.47
76603;BME280;65075;48.390;17.598;2023-02-28T06:09:20;100901.28;;;0.86;57.90
76603;BME280;65075;48.390;17.598;2023-02-28T06:11:49;100916.91;;;-0.05;60.33
76603;BME280;65075;48.390;17.598;2023-02-28T06:14:17;100919.28;;;-0.10;60.66
76603;BME280;65075;48.390;17.598;2023-02-28T06:16:45;100911.81;;;-0.73;64.42
76603;BME280;65075;48.390;17.598;2023-02-28T06:19:12;100918.91;;;-0.39;63.90
76603;BME280;65075;48.390;17.598;2023-02-28T06:21:39;100916.84;;;-0.70;64.44
76603;BME280;65075;48.390;17.598;2023-02-28T06:24:06;100906.16;;;1.21;58.73
76603;BME280;65075;48.390;17.598;2023-02-28T06:26:33;100897.13;;;1.90;54.89
76603;BME280;65075;48.390;17.598;2023-02-28T06:29:01;100920.59;;;3.36;51.76
76603;BME280;65075;48.390;17.598;2023-02-28T06:31:29;100912.56;;;2.77;52.16
76603;BME280;65075;48.390;17.598;2023-02-28T06:33:56;100928.94;;;2.76;53.20
76603;BME280;65075;48.390;17.598;2023-02-28T06:36:23;100932.69;;;2.38;53.88
76603;BME280;65075;48.390;17.598;2023-02-28T06:38:49;100926.41;;;3.04;52.96
76603;BME280;65075;48.390;17.598;2023-02-28T06:41:25;100928.19;;;3.68;51.12
76603;BME280;65075;48.390;17.598;2023-02-28T06:43:53;100876.88;;;3.26;51.95
76603;BME280;65075;48.390;17.598;2023-02-28T06:46:20;100926.63;;;4.23;50.26
76603;BME280;65075;48.390;17.598;2023-02-28T06:48:47;100924.78;;;3.24;53.10
76603;BME280;65075;48.390;17.598;2023-02-28T06:51:17;100928.34;;;2.37;57.30
76603;BME280;65075;48.390;17.598;2023-02-28T06:53:44;100929.63;;;4.07;50.71
76603;BME280;65075;48.390;17.598;2023-02-28T06:56:12;100925.47;;;4.59;50.61
76603;BME280;65075;48.390;17.598;2023-02-28T06:58:39;100912.28;;;2.58;55.00
76603;BME280;65075;48.390;17.598;2023-02-28T07:01:17;100920.97;;;3.54;52.91
76603;BME280;65075;48.390;17.598;2023-02-28T07:03:45;100923.72;;;3.75;51.96
76603;BME280;65075;48.390;17.598;2023-02-28T07:06:12;100937.09;;;2.53;56.59
76603;BME280;65075;48.390;17.598;2023-02-28T07:08:38;100931.56;;;3.20;54.51
76603;BME280;65075;48.390;17.598;2023-02-28T07:11:07;100942.75;;;4.10;52.17
76603;BME280;65075;48.390;17.598;2023-02-28T07:13:34;100933.03;;;4.15;51.70
76603;BME280;65075;48.390;17.598;2023-02-28T07:16:07;100934.09;;;3.21;54.05
76603;BME280;65075;48.390;17.598;2023-02-28T07:18:35;100937.88;;;3.98;52.14
76603;BME280;65075;48.390;17.598;2023-02-28T07:21:04;100932.16;;;2.42;56.56
76603;BME280;65075;48.390;17.598;2023-02-28T07:23:34;100932.91;;;2.95;55.13
76603;BME280;65075;48.390;17.598;2023-02-28T07:26:01;100942.34;;;3.20;54.02
76603;BME280;65075;48.390;17.598;2023-02-28T07:28:28;100939.94;;;2.52;56.64
76603;BME280;65075;48.390;17.598;2023-02-28T07:30:55;100941.84;;;4.51;52.00
76603;BME280;65075;48.390;17.598;2023-02-28T07:33:24;100957.34;;;4.43;51.70
76603;BME280;65075;48.390;17.598;2023-02-28T07:35:50;100940.16;;;4.78;49.72
76603;BME280;65075;48.390;17.598;2023-02-28T07:38:17;100945.72;;;3.93;51.76
76603;BME280;65075;48.390;17.598;2023-02-28T07:40:43;100951.84;;;3.66;52.22
76603;BME280;65075;48.390;17.598;2023-02-28T07:43:10;100947.88;;;4.81;50.04
76603;BME280;65075;48.390;17.598;2023-02-28T07:45:37;100944.03;;;4.14;51.53
76603;BME280;65075;48.390;17.598;2023-02-28T07:48:04;100956.44;;;5.26;49.27
76603;BME280;65075;48.390;17.598;2023-02-28T07:50:32;100955.28;;;3.39;53.11
76603;BME280;65075;48.390;17.598;2023-02-28T07:52:59;100958.00;;;3.96;51.89
76603;BME280;65075;48.390;17.598;2023-02-28T07:55:25;100929.59;;;5.24;47.99
76603;BME280;65075;48.390;17.598;2023-02-28T07:57:52;100939.13;;;4.24;50.14
76603;BME280;65075;48.390;17.598;2023-02-28T08:00:20;100959.31;;;5.17;50.07
76603;BME280;65075;48.390;17.598;2023-02-28T08:02:47;100951.53;;;5.01;50.30
76603;BME280;65075;48.390;17.598;2023-02-28T08:05:18;100963.66;;;4.50;50.53
76603;BME280;65075;48.390;17.598;2023-02-28T08:07:45;100962.56;;;4.72;50.43
76603;BME280;65075;48.390;17.598;2023-02-28T08:10:10;100961.84;;;5.19;49.01
76603;BME280;65075;48.390;17.598;2023-02-28T08:12:37;100921.47;;;5.24;48.17
76603;BME280;65075;48.390;17.598;2023-02-28T08:15:05;100961.59;;;2.58;55.19
76603;BME280;65075;48.390;17.598;2023-02-28T08:17:31;100951.13;;;3.07;54.07
76603;BME280;65075;48.390;17.598;2023-02-28T08:19:58;100960.53;;;2.82;54.42
76603;BME280;65075;48.390;17.598;2023-02-28T08:22:26;100961.78;;;5.12;49.63
76603;BME280;65075;48.390;17.598;2023-02-28T08:24:52;100952.09;;;5.85;47.02
76603;BME280;65075;48.390;17.598;2023-02-28T08:27:19;100966.41;;;5.25;48.49
76603;BME280;65075;48.390;17.598;2023-02-28T08:29:45;100967.91;;;4.38;47.50
76603;BME280;65075;48.390;17.598;2023-02-28T08:32:11;100962.59;;;4.44;48.38
76603;BME280;65075;48.390;17.598;2023-02-28T08:34:39;100957.47;;;3.00;51.89
76603;BME280;65075;48.390;17.598;2023-02-28T08:37:07;100963.88;;;2.99;52.12
76603;BME280;65075;48.390;17.598;2023-02-28T08:39:37;100969.78;;;2.50;53.40
76603;BME280;65075;48.390;17.598;2023-02-28T08:42:04;100972.47;;;2.13;55.04
76603;BME280;65075;48.390;17.598;2023-02-28T08:44:31;100932.53;;;2.39;54.11
76603;BME280;65075;48.390;17.598;2023-02-28T08:46:59;100986.97;;;4.30;49.25
76603;BME280;65075;48.390;17.598;2023-02-28T08:49:26;100966.41;;;5.18;46.10
76603;BME280;65075;48.390;17.598;2023-02-28T08:51:53;100907.50;;;2.16;52.51
76603;BME280;65075;48.390;17.598;2023-02-28T08:54:23;100974.06;;;2.22;54.91
76603;BME280;65075;48.390;17.598;2023-02-28T08:56:50;100974.19;;;3.96;50.42
76603;BME280;65075;48.390;17.598;2023-02-28T08:59:17;100901.69;;;4.76;47.65
76603;BME280;65075;48.390;17.598;2023-02-28T09:01:43;100973.72;;;3.21;52.82
76603;BME280;65075;48.390;17.598;2023-02-28T09:04:10;100965.06;;;4.46;48.13
76603;BME280;65075;48.390;17.598;2023-02-28T09:06:40;100929.47;;;3.01;53.01
76603;BME280;65075;48.390;17.598;2023-02-28T09:09:07;100974.03;;;4.74;48.20
76603;BME280;65075;48.390;17.598;2023-02-28T09:11:35;100988.09;;;4.63;47.88
76603;BME280;65075;48.390;17.598;2023-02-28T09:14:03;100975.06;;;4.73;46.58
76603;BME280;65075;48.390;17.598;2023-02-28T09:16:34;100980.91;;;6.12;43.14
76603;BME280;65075;48.390;17.598;2023-02-28T09:19:01;100963.75;;;5.32;44.65
76603;BME280;65075;48.390;17.598;2023-02-28T09:21:28;100978.78;;;5.41;44.96
76603;BME280;65075;48.390;17.598;2023-02-28T09:23:55;100981.72;;;5.93;43.71
76603;BME280;65075;48.390;17.598;2023-02-28T09:26:33;100982.19;;;6.29;42.61
76603;BME280;65075;48.390;17.598;2023-02-28T09:29:01;100942.94;;;6.91;41.68
76603;BME280;65075;48.390;17.598;2023-02-28T09:31:29;100975.53;;;6.84;41.90
76603;BME280;65075;48.390;17.598;2023-02-28T09:33:58;100984.66;;;7.03;40.41
76603;BME280;65075;48.390;17.598;2023-02-28T09:36:27;100995.66;;;5.43;44.11
76603;BME280;65075;48.390;17.598;2023-02-28T09:38:56;100989.78;;;4.00;48.11
76603;BME280;65075;48.390;17.598;2023-02-28T09:41:42;100987.19;;;6.32;43.97
76603;BME280;65075;48.390;17.598;2023-02-28T09:44:30;100993.75;;;5.02;44.28
76603;BME280;65075;48.390;17.598;2023-02-28T09:47:27;100990.69;;;3.86;48.80
76603;BME280;65075;48.390;17.598;2023-02-28T09:50:17;100989.88;;;3.21;49.75
76603;BME280;65075;48.390;17.598;2023-02-28T09:52:50;100945.75;;;4.21;47.97
76603;BME280;65075;48.390;17.598;2023-02-28T09:55:30;100981.09;;;6.11;44.95
76603;BME280;65075;48.390;17.598;2023-02-28T09:58:01;100983.44;;;5.12;45.75
76603;BME280;65075;48.390;17.598;2023-02-28T10:00:52;100990.13;;;5.64;44.15
76603;BME280;65075;48.390;17.598;2023-02-28T10:03:55;100993.59;;;4.76;44.56
76603;BME280;65075;48.390;17.598;2023-02-28T10:06:35;100989.59;;;3.45;49.04
76603;BME280;65075;48.390;17.598;2023-02-28T10:09:26;100996.34;;;4.55;46.02
76603;BME280;65075;48.390;17.598;2023-02-28T10:12:03;100998.56;;;4.24;46.17
76603;BME280;65075;48.390;17.598;2023-02-28T10:14:34;100991.13;;;3.54;49.47
76603;BME280;65075;48.390;17.598;2023-02-28T10:17:23;100994.03;;;5.07;46.50
76603;BME280;65075;48.390;17.598;2023-02-28T10:20:11;100988.84;;;6.79;41.50
76603;BME280;65075;48.390;17.598;2023-02-28T10:23:04;100989.09;;;6.84;41.06
76603;BME280;65075;48.390;17.598;2023-02-28T10:26:16;100985.72;;;6.89;39.25
76603;BME280;65075;48.390;17.598;2023-02-28T10:28:44;100948.03;;;4.73;44.75
76603;BME280;65075;48.390;17.598;2023-02-28T10:31:19;100989.47;;;4.80;45.04
76603;BME280;65075;48.390;17.598;2023-02-28T10:33:47;100986.78;;;6.49;40.49
76603;BME280;65075;48.390;17.598;2023-02-28T10:36:17;100975.78;;;7.40;38.53
76603;BME280;65075;48.390;17.598;2023-02-28T10:38:49;100975.81;;;8.16;37.70
76603;BME280;65075;48.390;17.598;2023-02-28T10:41:29;100989.19;;;5.91;40.39
76603;BME280;65075;48.390;17.598;2023-02-28T10:44:36;100982.44;;;8.58;34.79
76603;BME280;65075;48.390;17.598;2023-02-28T10:47:03;100959.13;;;7.30;37.85
76603;BME280;65075;48.390;17.598;2023-02-28T10:49:29;100973.66;;;6.59;38.89
76603;BME280;65075;48.390;17.598;2023-02-28T10:52:00;100968.66;;;6.56;39.58
76603;BME280;65075;48.390;17.598;2023-02-28T10:54:33;100965.06;;;6.95;39.97
76603;BME280;65075;48.390;17.598;2023-02-28T10:57:20;100958.44;;;6.64;38.69
76603;BME280;65075;48.390;17.598;2023-02-28T10:59:52;100917.63;;;8.30;35.04
76603;BME280;65075;48.390;17.598;2023-02-28T11:02:37;100962.53;;;5.95;39.64
76603;BME280;65075;48.390;17.598;2023-02-28T11:05:30;100956.72;;;6.04;38.68
76603;BME280;65075;48.390;17.598;2023-02-28T11:08:18;100955.41;;;7.18;37.60
76603;BME280;65075;48.390;17.598;2023-02-28T11:10:47;100960.38;;;5.77;39.66
76603;BME280;65075;48.390;17.598;2023-02-28T11:13:33;100960.22;;;4.90;40.92
76603;BME280;65075;48.390;17.598;2023-02-28T11:16:07;100947.59;;;6.45;39.00
76603;BME280;65075;48.390;17.598;2023-02-28T11:18:53;100949.66;;;7.90;34.65
76603;BME280;65075;48.390;17.598;2023-02-28T11:21:26;100945.75;;;7.35;36.15
76603;BME280;65075;48.390;17.598;2023-02-28T11:24:16;100947.94;;;4.88;40.66
76603;BME280;65075;48.390;17.598;2023-02-28T11:26:49;100949.22;;;4.15;41.65
76603;BME280;65075;48.390;17.598;2023-02-28T11:29:34;100940.88;;;4.93;40.87
76603;BME280;65075;48.390;17.598;2023-02-28T11:32:20;100934.66;;;6.20;38.67
76603;BME280;65075;48.390;17.598;2023-02-28T11:35:23;100928.50;;;7.55;34.94
76603;BME280;65075;48.390;17.598;2023-02-28T11:37:49;100926.41;;;8.50;35.20
76603;BME280;65075;48.390;17.598;2023-02-28T11:40:24;100924.94;;;9.63;31.89
76603;BME280;65075;48.390;17.598;2023-02-28T11:46:26;100922.34;;;8.59;33.98
76603;BME280;65075;48.390;17.598;2023-02-28T11:52:00;100883.13;;;7.30;36.18
76603;BME280;65075;48.390;17.598;2023-02-28T12:18:03;100887.22;;;6.95;36.29
76603;BME280;65075;48.390;17.598;2023-02-28T12:21:01;100888.09;;;7.33;36.09
76603;BME280;65075;48.390;17.598;2023-02-28T12:26:49;100874.63;;;8.63;34.27
76603;BME280;65075;48.390;17.598;2023-02-28T12:32:35;100867.59;;;9.58;33.26
76603;BME280;65075;48.390;17.598;2023-02-28T12:35:23;100844.66;;;10.42;31.75
76603;BME280;65075;48.390;17.598;2023-02-28T12:38:04;100866.47;;;10.88;31.26
76603;BME280;65075;48.390;17.598;2023-02-28T12:43:58;100864.09;;;8.24;34.72
76603;BME280;65075;48.390;17.598;2023-02-28T12:46:36;100862.50;;;8.59;36.35
76603;BME280;65075;48.390;17.598;2023-02-28T12:49:21;100851.81;;;10.02;32.20
76603;BME280;65075;48.390;17.598;2023-02-28T12:52:01;100850.53;;;8.42;34.31
76603;BME280;65075;48.390;17.598;2023-02-28T12:55:08;100849.22;;;9.24;33.47
76603;BME280;65075;48.390;17.598;2023-02-28T12:58:02;100841.56;;;8.96;34.25
76603;BME280;65075;48.390;17.598;2023-02-28T13:00:45;100833.91;;;9.23;33.48
76603;BME280;65075;48.390;17.598;2023-02-28T13:06:30;100831.41;;;7.12;37.37
76603;BME280;65075;48.390;17.598;2023-02-28T13:09:15;100827.88;;;7.49;35.70
76603;BME280;65075;48.390;17.598;2023-02-28T13:11:50;100832.03;;;7.52;35.89
76603;BME280;65075;48.390;17.598;2023-02-28T13:14:36;100823.75;;;7.40;38.04
76603;BME280;65075;48.390;17.598;2023-02-28T13:22:49;100824.47;;;9.55;34.24
76603;BME280;65075;48.390;17.598;2023-02-28T13:28:11;100815.53;;;8.28;35.22
76603;BME280;65075;48.390;17.598;2023-02-28T13:36:31;100806.13;;;8.48;34.60
76603;BME280;65075;48.390;17.598;2023-02-28T13:40:22;100800.63;;;8.91;34.26
76603;BME280;65075;48.390;17.598;2023-02-28T13:42:36;100795.75;;;9.11;33.68
76603;BME280;65075;48.390;17.598;2023-02-28T13:45:27;100803.72;;;10.65;31.89
76603;BME280;65075;48.390;17.598;2023-02-28T13:48:17;100766.75;;;9.47;33.81
76603;BME280;65075;48.390;17.598;2023-02-28T13:50:45;100797.59;;;9.29;33.66
76603;BME280;65075;48.390;17.598;2023-02-28T13:53:39;100804.94;;;8.81;35.32
76603;BME280;65075;48.390;17.598;2023-02-28T13:56:51;100796.19;;;8.79;36.67
76603;BME280;65075;48.390;17.598;2023-02-28T13:59:39;100807.38;;;6.71;38.48
76603;BME280;65075;48.390;17.598;2023-02-28T14:05:06;100796.72;;;9.17;36.10
76603;BME280;65075;48.390;17.598;2023-02-28T14:07:49;100794.00;;;9.47;34.59
76603;BME280;65075;48.390;17.598;2023-02-28T14:10:41;100792.13;;;8.99;34.98
76603;BME280;65075;48.390;17.598;2023-02-28T14:13:45;100800.13;;;8.22;37.62
76603;BME280;65075;48.390;17.598;2023-02-28T14:16:20;100783.44;;;6.62;39.65
76603;BME280;65075;48.390;17.598;2023-02-28T14:18:58;100785.72;;;7.40;38.82
76603;BME280;65075;48.390;17.598;2023-02-28T14:21:38;100780.38;;;8.69;36.32
76603;BME280;65075;48.390;17.598;2023-02-28T14:33:29;100779.81;;;7.99;37.19
76603;BME280;65075;48.390;17.598;2023-02-28T14:36:26;100780.56;;;7.32;38.71
76603;BME280;65075;48.390;17.598;2023-02-28T14:39:12;100784.38;;;8.48;37.42
76603;BME280;65075;48.390;17.598;2023-02-28T14:41:46;100772.13;;;9.24;35.63
76603;BME280;65075;48.390;17.598;2023-02-28T14:44:27;100777.56;;;9.24;35.33
76603;BME280;65075;48.390;17.598;2023-02-28T14:47:00;100772.44;;;8.68;35.83
76603;BME280;65075;48.390;17.598;2023-02-28T14:49:44;100765.38;;;9.79;34.43
76603;BME280;65075;48.390;17.598;2023-02-28T14:52:21;100766.50;;;6.73;40.16
76603;BME280;65075;48.390;17.598;2023-02-28T14:54:58;100780.66;;;8.00;38.06
76603;BME280;65075;48.390;17.598;2023-02-28T14:57:41;100765.97;;;6.89;39.67
76603;BME280;65075;48.390;17.598;2023-02-28T15:00:21;100771.44;;;7.52;38.30
76603;BME280;65075;48.390;17.598;2023-02-28T15:03:17;100772.38;;;7.70;38.41